Tiszavasvari, Hungary
Current Conditions -  °F | °C
As of 4:00 AM on Friday 19 Dec 2014 (Local Time) from LZKZ Reporting Station
Haze Haze  
Wind Chill: 35°   Ceiling: 200
Heat Index: 39°   Visibility: 1.8mi
Dew Point: 39°   Wind: 6mph
Humidity: 100%   Direction: 190°S
Pressure: 30.03"   Gusts: NA
Location:  47.97°N, 21.36°E
Report Text: LZKZ 190200Z 19005KT 160V220 3000 BR OVC002 04/04 Q1017
Loading
Personal Weather Stations






























Interactive Weather Map New forecast layout! Learn more

10-Day Weather Forecast

Advertisements
Track Severe Weather on mobile